Time;durP1;ratioP1;P1;durP2;ratioP2;P2;SDS_P1;SDS_P2;PMS_P1;PMS_P2;Temp;Humidity;BMP_temperature;BMP_pressure;BME280_temperature;BME280_humidity;BME280_pressure;Samples;Min_cycle;Max_cycle;Signal;HPM_P1;HPM_P2
2022/03/30 00:01:19;;;;;;;;;;;;;;;17.56;28.31;98433.94;4487665;31;34465;-63
2022/03/30 00:03:47;;;;;;;;;;;;;;;17.27;28.72;98431.28;4482372;31;35193;-62
2022/03/30 00:06:14;;;;;;;;;;;;;;;16.82;29.36;98425.94;4485589;31;34024;-63
2022/03/30 00:08:45;;;;;;;;;;;;;;;17.30;28.73;98431.75;4486485;31;35003;-62
2022/03/30 00:11:14;;;;;;;;;;;;;;;17.55;28.30;98424.13;4494560;31;34384;-63
2022/03/30 00:13:42;;;;;;;;;;;;;;;17.56;28.94;98427.66;4482649;31;34629;-61
2022/03/30 00:16:10;;;;;;;;;;;;;;;17.61;28.33;98431.47;4486495;31;34333;-63
2022/03/30 00:18:39;;;;;;;;;;;;;;;17.66;28.25;98429.06;4481468;31;34154;-60
2022/03/30 00:21:07;;;;;;;;;;;;;;;17.76;27.58;98431.44;4482402;31;35088;-62
2022/03/30 00:23:35;;;;;;;;;;;;;;;17.87;27.38;98433.66;4485322;31;34224;-61
2022/03/30 00:26:03;;;;;;;;;;;;;;;17.86;27.80;98425.75;4482448;31;34711;-62
2022/03/30 00:28:31;;;;;;;;;;;;;;;17.81;28.05;98418.19;4481294;31;34218;-62
2022/03/30 00:31:00;;;;;;;;;;;;;;;17.88;27.52;98418.25;4480315;31;34002;-61
2022/03/30 00:33:28;;;;;;;;;;;;;;;18.00;27.44;98416.69;4485351;31;33247;-63
2022/03/30 00:35:56;;;;;;;;;;;;;;;17.98;27.25;98417.91;4478969;31;33244;-61
2022/03/30 00:38:24;;;;;;;;;;;;;;;17.87;27.33;98409.28;4492198;31;34281;-62
2022/03/30 00:40:52;;;;;;;;;;;;;;;17.99;27.04;98411.50;4486266;31;34381;-63
2022/03/30 00:43:20;;;;;;;;;;;;;;;18.07;27.04;98416.75;4488741;31;35446;-61
2022/03/30 00:45:48;;;;;;;;;;;;;;;18.09;27.00;98393.87;4492336;31;34644;-62
2022/03/30 00:48:16;;;;;;;;;;;;;;;17.95;27.74;98394.81;4488394;31;34976;-62
2022/03/30 00:50:45;;;;;;;;;;;;;;;18.08;27.19;98399.50;4481245;31;32931;-62
2022/03/30 00:53:13;;;;;;;;;;;;;;;18.10;27.37;98397.41;4485142;31;34485;-62
2022/03/30 00:55:42;;;;;;;;;;;;;;;18.08;27.66;98396.78;4472489;32;34600;-63
2022/03/30 00:58:10;;;;;;;;;;;;;;;18.15;27.49;98394.97;4483820;31;33596;-63
2022/03/30 01:00:37;;;;;;;;;;;;;;;17.97;28.09;98398.13;4484614;31;33688;-62
2022/03/30 01:03:07;;;;;;;;;;;;;;;18.07;27.91;98392.37;4482387;31;34063;-63
2022/03/30 01:05:36;;;;;;;;;;;;;;;18.19;27.22;98390.81;4486517;31;32381;-62
2022/03/30 01:08:04;;;;;;;;;;;;;;;17.90;28.33;98394.53;4491139;31;34221;-62
2022/03/30 01:10:32;;;;;;;;;;;;;;;17.97;28.42;98389.19;4492636;31;34491;-62
2022/03/30 01:13:02;;;;;;;;;;;;;;;18.21;27.40;98394.19;4486163;31;33370;-59
2022/03/30 01:15:30;;;;;;;;;;;;;;;18.00;27.61;98384.22;4487513;31;34625;-60
2022/03/30 01:17:58;;;;;;;;;;;;;;;18.14;27.39;98379.78;4485728;31;34846;-60
2022/03/30 01:20:26;;;;;;;;;;;;;;;18.24;27.21;98382.97;4497091;31;34091;-61
2022/03/30 01:23:02;;;;;;;;;;;;;;;18.16;27.48;98383.94;4478939;31;33331;-62
2022/03/30 01:25:31;;;;;;;;;;;;;;;17.99;28.02;98387.13;4487458;31;33531;-61
2022/03/30 01:28:00;;;;;;;;;;;;;;;17.84;28.64;98385.31;4489290;31;33383;-60
2022/03/30 01:33:15;;;;;;;;;;;;;;;17.83;28.50;98370.13;4486189;31;34961;-61
2022/03/30 01:35:42;;;;;;;;;;;;;;;17.71;28.55;98371.63;4487641;31;33565;-60
2022/03/30 01:38:11;;;;;;;;;;;;;;;17.75;28.68;98372.91;4491692;31;32956;-61
2022/03/30 01:40:41;;;;;;;;;;;;;;;17.67;28.86;98367.66;4485773;32;33094;-61
2022/03/30 01:43:09;;;;;;;;;;;;;;;17.25;29.57;98355.78;4485192;31;34491;-61
2022/03/30 01:45:38;;;;;;;;;;;;;;;17.18;29.74;98357.59;4489513;31;34583;-59
2022/03/30 01:48:06;;;;;;;;;;;;;;;17.41;29.32;98363.66;4486916;31;34074;-60
2022/03/30 01:50:34;;;;;;;;;;;;;;;17.22;29.68;98362.41;4477784;31;34411;-61
2022/03/30 01:53:02;;;;;;;;;;;;;;;17.33;29.38;98358.34;4493692;31;34457;-60
2022/03/30 01:55:31;;;;;;;;;;;;;;;17.35;29.60;98359.00;4484547;31;34931;-62
2022/03/30 01:57:59;;;;;;;;;;;;;;;17.54;29.32;98357.53;4495435;31;34955;-62
2022/03/30 02:00:28;;;;;;;;;;;;;;;17.56;29.23;98351.91;4490438;31;32902;-60
2022/03/30 02:02:56;;;;;;;;;;;;;;;17.51;29.41;98347.09;4486869;31;34653;-61
2022/03/30 02:05:24;;;;;;;;;;;;;;;17.55;29.33;98351.09;4478338;31;34331;-60
2022/03/30 02:07:52;;;;;;;;;;;;;;;17.25;30.12;98344.97;4483854;31;33763;-61
2022/03/30 02:10:20;;;;;;;;;;;;;;;16.99;30.38;98346.34;4482699;31;33867;-61
2022/03/30 02:12:48;;;;;;;;;;;;;;;16.95;30.52;98342.34;4489082;31;33287;-61
2022/03/30 02:15:17;;;;;;;;;;;;;;;17.14;30.43;98337.34;4488116;31;32544;-61
2022/03/30 02:17:47;;;;;;;;;;;;;;;17.20;30.21;98342.00;4485832;31;33050;-61
2022/03/30 02:20:16;;;;;;;;;;;;;;;16.68;31.19;98338.44;4485737;31;34338;-60
2022/03/30 02:22:48;;;;;;;;;;;;;;;17.03;30.65;98337.84;4484676;31;35494;-60
2022/03/30 02:25:17;;;;;;;;;;;;;;;16.89;31.24;98355.78;4486761;31;33289;-61
2022/03/30 02:27:46;;;;;;;;;;;;;;;17.09;30.67;98346.03;4486888;31;33862;-62
2022/03/30 02:30:15;;;;;;;;;;;;;;;16.90;31.17;98354.75;4489450;31;33315;-61
2022/03/30 02:32:47;;;;;;;;;;;;;;;16.73;31.45;98348.69;4480371;31;34482;-61
2022/03/30 02:35:15;;;;;;;;;;;;;;;16.62;31.75;98341.03;4480936;31;32922;-60
2022/03/30 02:37:44;;;;;;;;;;;;;;;16.80;31.35;98357.75;4482696;31;32607;-61
2022/03/30 02:40:13;;;;;;;;;;;;;;;16.95;31.14;98355.84;4483185;31;36715;-62
2022/03/30 02:42:42;;;;;;;;;;;;;;;16.87;31.91;98357.81;4481311;31;35170;-61
2022/03/30 02:45:11;;;;;;;;;;;;;;;16.87;31.64;98347.84;4492352;31;34385;-61
2022/03/30 02:50:26;;;;;;;;;;;;;;;16.79;31.71;98347.97;4486081;31;34003;-62
2022/03/30 02:53:00;;;;;;;;;;;;;;;16.67;31.93;98349.44;4487924;31;34834;-60
2022/03/30 02:55:33;;;;;;;;;;;;;;;16.67;31.73;98346.72;4483544;31;33204;-60
2022/03/30 02:58:02;;;;;;;;;;;;;;;16.67;31.44;98357.53;4488118;31;32694;-60
2022/03/30 03:00:32;;;;;;;;;;;;;;;16.59;31.46;98347.66;4479291;31;33995;-62
2022/03/30 03:03:03;;;;;;;;;;;;;;;16.60;31.37;98354.75;4485335;31;34334;-60
2022/03/30 03:05:33;;;;;;;;;;;;;;;16.37;31.53;98343.19;4488226;31;32752;-61
2022/03/30 03:08:03;;;;;;;;;;;;;;;16.27;31.84;98340.75;4482170;31;34118;-60
2022/03/30 03:10:32;;;;;;;;;;;;;;;16.18;32.30;98339.16;4486467;31;34360;-60
2022/03/30 03:13:04;;;;;;;;;;;;;;;16.28;32.10;98339.75;4482990;31;34486;-61
2022/03/30 03:15:34;;;;;;;;;;;;;;;16.29;32.16;98342.25;4487240;31;33462;-60
2022/03/30 03:18:05;;;;;;;;;;;;;;;16.19;32.47;98352.50;4481629;31;35590;-60
2022/03/30 03:20:34;;;;;;;;;;;;;;;16.02;32.23;98357.22;4482019;31;33170;-62
2022/03/30 03:23:05;;;;;;;;;;;;;;;16.18;31.83;98350.81;4483585;31;35144;-61
2022/03/30 03:25:37;;;;;;;;;;;;;;;16.40;31.44;98350.91;4488143;31;32060;-62
2022/03/30 03:28:08;;;;;;;;;;;;;;;16.26;31.60;98348.03;4485217;31;32944;-61
2022/03/30 03:30:37;;;;;;;;;;;;;;;16.20;31.49;98346.06;4489309;31;33291;-61
2022/03/30 03:33:08;;;;;;;;;;;;;;;15.92;32.29;98345.00;4485428;31;34162;-61
2022/03/30 03:35:37;;;;;;;;;;;;;;;16.11;31.93;98338.22;4487783;31;32607;-62
2022/03/30 03:38:08;;;;;;;;;;;;;;;16.25;31.24;98340.13;4481391;31;33204;-63
2022/03/30 03:40:40;;;;;;;;;;;;;;;16.18;31.77;98342.72;4491122;31;35190;-61
2022/03/30 03:43:11;;;;;;;;;;;;;;;15.96;31.83;98340.94;4485428;31;34547;-61
2022/03/30 03:45:40;;;;;;;;;;;;;;;16.01;31.50;98342.03;4484402;31;34913;-68
2022/03/30 03:48:08;;;;;;;;;;;;;;;16.04;31.55;98336.25;4485745;31;35104;-62
2022/03/30 03:50:37;;;;;;;;;;;;;;;15.49;32.83;98341.97;4483046;31;35479;-61
2022/03/30 03:53:05;;;;;;;;;;;;;;;16.04;31.56;98348.94;4484652;31;34552;-61
2022/03/30 03:55:36;;;;;;;;;;;;;;;15.76;32.23;98338.75;4489381;31;33219;-62
2022/03/30 03:58:06;;;;;;;;;;;;;;;15.64;32.75;98336.62;4487464;31;33148;-61
2022/03/30 04:00:34;;;;;;;;;;;;;;;15.80;32.29;98342.75;4483088;31;33257;-60
2022/03/30 04:03:03;;;;;;;;;;;;;;;15.93;32.11;98333.19;4482446;31;35028;-60
2022/03/30 04:05:32;;;;;;;;;;;;;;;16.00;31.71;98336.84;4480195;31;32413;-62
2022/03/30 04:08:01;;;;;;;;;;;;;;;15.91;31.96;98327.97;4488337;31;34908;-64
2022/03/30 04:10:29;;;;;;;;;;;;;;;15.92;32.35;98332.34;4483014;31;35123;-62
2022/03/30 04:12:57;;;;;;;;;;;;;;;15.86;32.45;98329.53;4487416;31;32858;-62
2022/03/30 04:15:25;;;;;;;;;;;;;;;15.73;32.89;98327.44;4487667;31;33345;-63
2022/03/30 04:17:55;;;;;;;;;;;;;;;15.94;32.16;98327.59;4480860;31;35529;-61
2022/03/30 04:20:23;;;;;;;;;;;;;;;15.69;33.11;98323.44;4488330;31;34520;-62
2022/03/30 04:22:52;;;;;;;;;;;;;;;15.63;32.80;98329.53;4491033;31;35087;-62
2022/03/30 04:25:21;;;;;;;;;;;;;;;15.48;33.33;98327.62;4484850;31;34392;-61
2022/03/30 04:27:51;;;;;;;;;;;;;;;15.49;33.38;98329.31;4483299;31;33992;-62
2022/03/30 04:30:22;;;;;;;;;;;;;;;15.60;33.12;98326.19;4481244;31;34036;-61
2022/03/30 04:32:51;;;;;;;;;;;;;;;15.34;33.62;98331.09;4486085;31;33143;-62
2022/03/30 04:35:25;;;;;;;;;;;;;;;15.45;33.65;98338.78;4481947;31;33631;-61
2022/03/30 04:37:54;;;;;;;;;;;;;;;15.49;33.12;98334.69;4488100;31;33241;-63
2022/03/30 04:40:25;;;;;;;;;;;;;;;15.35;33.79;98333.63;4490353;31;34227;-62
2022/03/30 04:42:54;;;;;;;;;;;;;;;15.27;33.83;98338.22;4481211;31;33211;-62
2022/03/30 04:45:24;;;;;;;;;;;;;;;15.42;33.61;98335.62;4480713;31;32362;-62
2022/03/30 04:47:54;;;;;;;;;;;;;;;15.46;33.48;98345.00;4483144;31;34480;-63
2022/03/30 04:50:26;;;;;;;;;;;;;;;15.38;33.73;98340.53;4486468;31;35356;-61
2022/03/30 04:52:57;;;;;;;;;;;;;;;15.11;34.62;98339.19;4490309;31;34752;-64
2022/03/30 04:55:26;;;;;;;;;;;;;;;15.18;34.38;98342.00;4486643;31;32347;-64
2022/03/30 04:57:57;;;;;;;;;;;;;;;15.03;35.18;98345.47;4484069;31;33705;-65
2022/03/30 05:00:26;;;;;;;;;;;;;;;15.20;34.70;98345.34;4491835;31;34378;-63
2022/03/30 05:02:56;;;;;;;;;;;;;;;15.09;34.89;98346.63;4482100;31;33229;-63
2022/03/30 05:05:25;;;;;;;;;;;;;;;15.12;34.84;98355.19;4483374;31;33776;-65
2022/03/30 05:07:56;;;;;;;;;;;;;;;15.10;35.06;98359.91;4488612;31;33341;-63
2022/03/30 05:10:26;;;;;;;;;;;;;;;15.03;35.66;98358.09;4488937;31;33088;-64
2022/03/30 05:12:54;;;;;;;;;;;;;;;15.25;34.96;98354.59;4483861;31;32965;-63
2022/03/30 05:15:24;;;;;;;;;;;;;;;15.44;34.56;98361.38;4483490;31;34829;-64
2022/03/30 05:17:52;;;;;;;;;;;;;;;15.21;35.11;98371.28;4484272;31;33467;-64
2022/03/30 05:20:20;;;;;;;;;;;;;;;15.31;34.92;98371.88;4484152;31;35015;-65
2022/03/30 05:22:48;;;;;;;;;;;;;;;15.49;34.70;98368.91;4488091;31;35505;-65
2022/03/30 05:25:19;;;;;;;;;;;;;;;15.58;34.33;98371.38;4491478;31;33541;-63
2022/03/30 05:27:48;;;;;;;;;;;;;;;15.46;34.69;98375.50;4481608;31;32824;-65
2022/03/30 05:30:16;;;;;;;;;;;;;;;15.52;34.81;98379.34;4483322;31;34574;-63
2022/03/30 05:32:45;;;;;;;;;;;;;;;15.37;35.15;98365.78;4483047;31;35383;-64
2022/03/30 05:35:14;;;;;;;;;;;;;;;15.53;35.06;98375.63;4484019;31;33492;-65
2022/03/30 05:37:49;;;;;;;;;;;;;;;15.69;34.87;98377.41;4486119;31;34149;-63
2022/03/30 05:40:18;;;;;;;;;;;;;;;15.81;34.49;98378.66;4482184;31;35505;-63
2022/03/30 05:42:46;;;;;;;;;;;;;;;15.99;34.05;98375.63;4485007;31;32940;-64
2022/03/30 05:45:15;;;;;;;;;;;;;;;16.17;33.54;98369.87;4484541;31;33547;-64
2022/03/30 05:47:44;;;;;;;;;;;;;;;16.19;33.18;98367.84;4484192;31;34093;-63
2022/03/30 05:50:12;;;;;;;;;;;;;;;16.20;33.02;98367.66;4482119;31;35203;-63
2022/03/30 05:52:40;;;;;;;;;;;;;;;16.25;33.28;98364.41;4481980;31;34358;-64
2022/03/30 05:55:09;;;;;;;;;;;;;;;16.35;32.86;98359.59;4481917;31;32426;-65
2022/03/30 05:57:37;;;;;;;;;;;;;;;16.24;33.07;98368.13;4481219;31;32532;-61
2022/03/30 06:00:07;;;;;;;;;;;;;;;16.17;33.45;98373.41;4471288;31;34868;-63
2022/03/30 06:02:40;;;;;;;;;;;;;;;16.21;33.65;98374.75;4482227;31;33402;-63
2022/03/30 06:05:09;;;;;;;;;;;;;;;16.31;33.41;98379.88;4487845;31;33416;-64
2022/03/30 06:07:37;;;;;;;;;;;;;;;16.43;33.25;98369.44;4486377;31;34089;-65
2022/03/30 06:10:06;;;;;;;;;;;;;;;16.60;33.28;98375.53;4483910;31;34020;-65
2022/03/30 06:12:39;;;;;;;;;;;;;;;16.76;32.93;98375.38;4484037;31;33938;-65
2022/03/30 06:15:08;;;;;;;;;;;;;;;16.85;33.04;98373.38;4485030;31;33305;-65
2022/03/30 06:17:36;;;;;;;;;;;;;;;16.90;33.02;98376.38;4484549;31;32847;-63
2022/03/30 06:20:06;;;;;;;;;;;;;;;17.15;32.83;98376.87;4483442;31;34126;-64
2022/03/30 06:22:41;;;;;;;;;;;;;;;17.24;32.88;98373.03;4469865;31;34418;-64
2022/03/30 06:25:28;;;;;;;;;;;;;;;17.13;33.11;98376.22;4488423;31;32486;-64
2022/03/30 06:28:03;;;;;;;;;;;;;;;17.16;33.45;98383.97;4484165;31;33905;-65
2022/03/30 06:30:34;;;;;;;;;;;;;;;17.56;32.43;98381.69;4484994;31;33418;-63
2022/03/30 06:33:13;;;;;;;;;;;;;;;17.75;32.22;98380.19;4487987;31;34961;-64
2022/03/30 06:35:57;;;;;;;;;;;;;;;17.73;32.82;98380.41;4484603;31;32739;-65
2022/03/30 06:38:31;;;;;;;;;;;;;;;18.05;32.49;98373.66;4484807;31;34000;-64
2022/03/30 06:41:06;;;;;;;;;;;;;;;18.27;31.19;98384.44;4483677;31;34650;-64
2022/03/30 06:43:36;;;;;;;;;;;;;;;18.35;31.35;98390.53;4484734;31;34411;-65
2022/03/30 06:46:14;;;;;;;;;;;;;;;18.56;30.80;98391.53;4486004;31;33466;-65
2022/03/30 06:48:48;;;;;;;;;;;;;;;18.69;31.00;98386.19;4486617;31;35000;-66
2022/03/30 06:51:21;;;;;;;;;;;;;;;18.67;31.25;98380.09;4487168;31;34226;-65
2022/03/30 06:53:53;;;;;;;;;;;;;;;18.77;30.61;98379.78;4483139;31;34613;-66
2022/03/30 06:56:36;;;;;;;;;;;;;;;18.83;30.79;98385.22;4484728;31;32271;-66
2022/03/30 06:59:19;;;;;;;;;;;;;;;18.89;30.72;98385.47;4488593;31;33563;-63
2022/03/30 07:01:54;;;;;;;;;;;;;;;18.82;30.98;98383.56;4486794;31;36628;-64
2022/03/30 07:04:35;;;;;;;;;;;;;;;19.11;30.29;98381.62;4484865;31;34520;-62
2022/03/30 07:10:16;;;;;;;;;;;;;;;19.39;29.56;98377.94;4484841;31;33055;-63
2022/03/30 07:12:48;;;;;;;;;;;;;;;19.00;29.89;98387.59;4488973;31;35830;-63
2022/03/30 07:15:24;;;;;;;;;;;;;;;19.51;29.48;98385.28;4484599;31;35160;-62
2022/03/30 07:17:59;;;;;;;;;;;;;;;19.33;29.63;98385.03;4486373;31;33114;-61
2022/03/30 07:20:39;;;;;;;;;;;;;;;19.53;29.19;98387.81;4489973;31;33030;-64
2022/03/30 07:23:10;;;;;;;;;;;;;;;19.38;28.66;98378.97;4488653;31;35430;-62
2022/03/30 07:25:53;;;;;;;;;;;;;;;19.45;28.86;98377.13;4485438;31;33312;-63
2022/03/30 07:28:35;;;;;;;;;;;;;;;18.95;29.20;98376.53;4486668;31;34478;-62
2022/03/30 07:31:11;;;;;;;;;;;;;;;19.34;29.35;98378.56;4483814;31;32982;-62
2022/03/30 07:33:50;;;;;;;;;;;;;;;19.69;28.24;98371.16;4484866;31;31960;-62
2022/03/30 07:36:28;;;;;;;;;;;;;;;19.80;28.01;98374.31;4484714;31;34403;-63
2022/03/30 07:39:12;;;;;;;;;;;;;;;19.88;28.24;98368.69;4484772;31;34590;-63
2022/03/30 07:41:54;;;;;;;;;;;;;;;19.70;27.90;98363.84;4488889;31;33047;-62
2022/03/30 07:44:31;;;;;;;;;;;;;;;19.57;27.75;98367.34;4490174;31;34320;-65
2022/03/30 07:47:12;;;;;;;;;;;;;;;19.71;28.12;98363.66;4485809;31;35552;-65
2022/03/30 07:49:55;;;;;;;;;;;;;;;19.74;27.48;98359.66;4488415;31;33224;-63
2022/03/30 07:52:34;;;;;;;;;;;;;;;19.92;27.36;98364.50;4483299;31;33872;-62
2022/03/30 07:55:14;;;;;;;;;;;;;;;20.08;26.75;98374.12;4485933;31;32911;-63
2022/03/30 07:57:51;;;;;;;;;;;;;;;19.83;27.02;98376.59;4483656;31;33285;-64
2022/03/30 08:00:32;;;;;;;;;;;;;;;19.71;27.32;98379.94;4485292;31;33748;-62
2022/03/30 08:03:08;;;;;;;;;;;;;;;19.98;27.71;98379.97;4484018;31;33777;-63
2022/03/30 08:05:44;;;;;;;;;;;;;;;20.06;27.63;98377.03;4487049;31;32540;-64
2022/03/30 08:08:22;;;;;;;;;;;;;;;20.44;26.83;98379.94;4488861;31;33552;-62
2022/03/30 08:10:59;;;;;;;;;;;;;;;20.66;26.76;98379.72;4487602;31;31975;-63
2022/03/30 08:13:36;;;;;;;;;;;;;;;21.02;25.61;98381.06;4483715;31;34086;-63
2022/03/30 08:16:19;;;;;;;;;;;;;;;21.15;25.60;98381.00;4483988;31;35652;-62
2022/03/30 08:18:51;;;;;;;;;;;;;;;21.29;25.63;98388.09;4485031;31;34460;-62
2022/03/30 08:24:39;;;;;;;;;;;;;;;21.61;25.34;98389.00;4465086;31;32756;-63
2022/03/30 08:27:19;;;;;;;;;;;;;;;21.39;25.73;98398.53;4487031;31;33316;-62
2022/03/30 08:30:01;;;;;;;;;;;;;;;21.82;24.78;98384.22;4484652;31;33214;-63
2022/03/30 08:32:30;;;;;;;;;;;;;;;22.04;24.89;98388.25;4484967;31;33812;-62
2022/03/30 08:35:12;;;;;;;;;;;;;;;21.93;24.71;98391.72;4488886;31;34416;-64
2022/03/30 08:37:53;;;;;;;;;;;;;;;21.85;24.90;98386.53;4485675;31;33042;-62
2022/03/30 08:40:40;;;;;;;;;;;;;;;22.42;24.66;98387.34;4488584;31;34543;-62
2022/03/30 08:43:20;;;;;;;;;;;;;;;22.77;24.76;98389.53;4491317;31;34599;-62
2022/03/30 08:45:56;;;;;;;;;;;;;;;21.87;24.88;98396.16;4475658;31;34053;-62
2022/03/30 08:48:34;;;;;;;;;;;;;;;21.53;25.74;98388.41;4495148;31;35334;-62
2022/03/30 08:51:17;;;;;;;;;;;;;;;20.39;27.94;98392.50;4473398;31;35941;-62
2022/03/30 08:53:58;;;;;;;;;;;;;;;19.94;28.62;98395.00;4492022;31;33774;-63
2022/03/30 08:56:39;;;;;;;;;;;;;;;19.52;29.26;98402.41;4484915;31;34048;-61
2022/03/30 08:59:22;;;;;;;;;;;;;;;19.31;29.72;98400.66;4487318;31;34741;-62
2022/03/30 09:02:07;;;;;;;;;;;;;;;19.06;31.05;98403.91;4484783;31;34406;-63
2022/03/30 09:04:42;;;;;;;;;;;;;;;18.95;31.12;98401.78;4485305;31;32744;-64
2022/03/30 09:07:20;;;;;;;;;;;;;;;19.13;30.91;98389.53;4485920;31;33271;-64
2022/03/30 09:09:59;;;;;;;;;;;;;;;19.24;31.17;98394.41;4484077;31;34800;-64
2022/03/30 09:12:37;;;;;;;;;;;;;;;19.29;30.90;98395.47;4474271;31;35363;-63
2022/03/30 09:15:15;;;;;;;;;;;;;;;19.43;30.86;98390.06;4472955;31;33943;-65
2022/03/30 09:18:09;;;;;;;;;;;;;;;18.81;31.89;98387.31;4488224;31;33901;-63
2022/03/30 09:20:48;;;;;;;;;;;;;;;18.88;32.03;98389.25;4484425;31;33030;-62
2022/03/30 09:23:33;;;;;;;;;;;;;;;19.49;31.04;98390.09;4485828;31;34437;-63
2022/03/30 09:26:10;;;;;;;;;;;;;;;19.46;31.44;98387.78;4482778;31;33464;-63
2022/03/30 09:28:47;;;;;;;;;;;;;;;19.06;31.81;98390.34;4480887;31;34238;-62
2022/03/30 09:31:27;;;;;;;;;;;;;;;18.75;32.49;98393.53;4483865;31;32971;-61
2022/03/30 09:34:12;;;;;;;;;;;;;;;18.61;33.21;98391.75;4489413;31;35293;-64
2022/03/30 09:36:55;;;;;;;;;;;;;;;17.96;34.58;98396.47;4488040;31;32509;-63
2022/03/30 09:39:38;;;;;;;;;;;;;;;18.21;34.35;98396.91;4489034;31;34558;-62
2022/03/30 09:42:22;;;;;;;;;;;;;;;17.64;35.41;98393.22;4482641;31;34810;-61
2022/03/30 09:44:57;;;;;;;;;;;;;;;18.54;34.24;98382.75;4482945;31;33632;-61
2022/03/30 09:47:41;;;;;;;;;;;;;;;17.48;36.24;98387.22;4483442;31;32612;-62
2022/03/30 09:50:21;;;;;;;;;;;;;;;17.43;36.29;98382.38;4483594;31;33029;-63
2022/03/30 09:53:08;;;;;;;;;;;;;;;17.28;36.53;98376.19;4474755;31;34239;-62
2022/03/30 09:55:55;;;;;;;;;;;;;;;18.33;34.78;98376.38;4490414;31;33309;-62
2022/03/30 09:58:35;;;;;;;;;;;;;;;17.60;35.90;98374.88;4488823;31;32294;-63
2022/03/30 10:01:19;;;;;;;;;;;;;;;17.17;36.73;98370.25;4483808;31;34467;-64
2022/03/30 10:04:04;;;;;;;;;;;;;;;17.39;36.30;98370.28;4486433;31;33014;-62
2022/03/30 10:06:42;;;;;;;;;;;;;;;18.00;34.91;98365.25;4489705;31;33162;-64
2022/03/30 10:09:16;;;;;;;;;;;;;;;17.81;34.77;98365.94;4471541;31;32318;-64
2022/03/30 10:11:49;;;;;;;;;;;;;;;17.75;35.13;98366.66;4491585;31;33797;-62
2022/03/30 10:14:19;;;;;;;;;;;;;;;17.64;35.32;98363.47;4475477;31;32971;-61
2022/03/30 10:16:47;;;;;;;;;;;;;;;17.42;36.10;98359.91;4471415;31;34628;-62
2022/03/30 10:19:22;;;;;;;;;;;;;;;17.50;36.06;98361.66;4484701;31;32453;-62
2022/03/30 10:22:03;;;;;;;;;;;;;;;16.81;37.40;98362.09;4485880;31;34461;-62
2022/03/30 10:24:32;;;;;;;;;;;;;;;16.71;37.89;98359.66;4475973;32;33707;-65
2022/03/30 10:27:12;;;;;;;;;;;;;;;16.96;37.77;98354.00;4483880;31;34515;-61
2022/03/30 10:29:50;;;;;;;;;;;;;;;16.93;37.90;98354.37;4482407;31;34351;-64
2022/03/30 10:32:40;;;;;;;;;;;;;;;17.42;37.48;98351.78;4494422;31;34183;-65
2022/03/30 10:35:18;;;;;;;;;;;;;;;17.62;37.08;98348.44;4484295;31;34227;-62
2022/03/30 10:38:02;;;;;;;;;;;;;;;17.20;37.57;98345.53;4484583;31;34996;-64
2022/03/30 10:40:40;;;;;;;;;;;;;;;16.98;37.97;98343.81;4486186;31;33727;-62
2022/03/30 10:43:08;;;;;;;;;;;;;;;17.16;37.49;98336.12;4488101;31;32771;-61
2022/03/30 10:45:46;;;;;;;;;;;;;;;17.16;37.12;98332.59;4484009;31;34243;-62
2022/03/30 10:48:34;;;;;;;;;;;;;;;17.74;35.88;98330.66;4480357;31;34949;-61
2022/03/30 10:51:07;;;;;;;;;;;;;;;17.50;35.28;98341.91;4478352;31;33478;-61
2022/03/30 10:53:38;;;;;;;;;;;;;;;16.87;36.30;98334.34;4476610;31;32871;-62
2022/03/30 10:56:09;;;;;;;;;;;;;;;17.70;35.00;98313.97;4480079;31;34453;-62
2022/03/30 10:58:38;;;;;;;;;;;;;;;17.92;34.68;98316.69;4483823;31;35373;-63
2022/03/30 11:01:15;;;;;;;;;;;;;;;17.84;34.57;98317.66;4475254;31;32660;-62
2022/03/30 11:03:59;;;;;;;;;;;;;;;17.90;35.20;98322.28;4475863;31;34542;-62
2022/03/30 11:06:30;;;;;;;;;;;;;;;18.27;35.01;98319.44;4478413;31;32971;-62
2022/03/30 11:09:01;;;;;;;;;;;;;;;18.19;35.43;98309.59;4479246;31;34704;-62
2022/03/30 11:11:35;;;;;;;;;;;;;;;17.82;35.76;98308.91;4487498;31;33415;-62
2022/03/30 11:14:27;;;;;;;;;;;;;;;17.46;36.85;98314.38;4473964;31;32606;-61
2022/03/30 11:16:56;;;;;;;;;;;;;;;18.32;35.70;98303.41;4481918;31;35037;-62
2022/03/30 11:19:29;;;;;;;;;;;;;;;18.23;35.28;98300.03;4482328;31;33517;-62
2022/03/30 11:22:09;;;;;;;;;;;;;;;18.02;35.42;98300.13;4483161;31;33669;-63
2022/03/30 11:24:46;;;;;;;;;;;;;;;18.04;35.21;98287.19;4482743;31;35118;-62
2022/03/30 11:27:14;;;;;;;;;;;;;;;17.42;36.40;98292.28;4483043;31;34118;-63
2022/03/30 11:29:49;;;;;;;;;;;;;;;18.70;34.67;98290.28;4485653;31;35528;-62
2022/03/30 11:32:18;;;;;;;;;;;;;;;19.06;33.46;98283.75;4485702;31;32330;-65
2022/03/30 11:34:52;;;;;;;;;;;;;;;18.32;33.84;98282.59;4487078;31;34694;-62
2022/03/30 11:37:21;;;;;;;;;;;;;;;18.32;34.23;98287.16;4482978;31;32835;-64
2022/03/30 11:39:52;;;;;;;;;;;;;;;17.87;35.02;98278.53;4468901;31;34683;-62
2022/03/30 11:42:21;;;;;;;;;;;;;;;17.89;35.07;98277.31;4474024;31;32297;-62
2022/03/30 11:47:37;;;;;;;;;;;;;;;17.71;35.35;98274.22;4475042;31;34084;-65
2022/03/30 11:50:15;;;;;;;;;;;;;;;17.49;35.99;98261.75;4484797;31;33423;-63
2022/03/30 11:52:53;;;;;;;;;;;;;;;17.48;35.53;98268.22;4478254;31;30591;-62
2022/03/30 11:55:26;;;;;;;;;;;;;;;16.75;36.89;98269.13;4481303;31;34173;-62
2022/03/30 11:57:57;;;;;;;;;;;;;;;18.41;34.41;98261.59;4474890;31;34454;-63
2022/03/30 12:00:26;;;;;;;;;;;;;;;18.33;34.29;98259.03;4478871;31;34552;-64
2022/03/30 12:02:58;;;;;;;;;;;;;;;17.67;35.14;98254.03;4470494;31;32801;-62
2022/03/30 12:05:26;;;;;;;;;;;;;;;17.27;36.13;98259.09;4476204;31;32682;-61
2022/03/30 12:08:00;;;;;;;;;;;;;;;17.48;35.63;98252.00;4477491;31;35613;-61
2022/03/30 12:10:31;;;;;;;;;;;;;;;17.76;34.67;98247.44;4476831;31;34528;-61
2022/03/30 12:13:00;;;;;;;;;;;;;;;17.61;35.07;98241.28;4476518;31;33575;-61
2022/03/30 12:15:31;;;;;;;;;;;;;;;17.05;36.39;98242.03;4477664;31;34494;-61
2022/03/30 12:18:01;;;;;;;;;;;;;;;17.26;36.28;98234.94;4479159;31;35809;-63
2022/03/30 12:20:29;;;;;;;;;;;;;;;17.04;37.20;98237.62;4475220;31;32864;-63
2022/03/30 12:23:02;;;;;;;;;;;;;;;16.92;37.25;98237.34;4480180;31;34704;-62
2022/03/30 12:25:35;;;;;;;;;;;;;;;17.72;36.08;98229.06;4479608;31;33519;-61
2022/03/30 12:28:05;;;;;;;;;;;;;;;17.13;36.08;98233.78;4466464;31;34396;-61
2022/03/30 12:30:36;;;;;;;;;;;;;;;17.23;35.51;98228.03;4477721;31;33202;-61
2022/03/30 12:33:05;;;;;;;;;;;;;;;16.65;36.86;98221.81;4477569;31;33328;-62
2022/03/30 12:35:35;;;;;;;;;;;;;;;16.99;35.61;98218.47;4465268;31;34289;-63
2022/03/30 12:38:05;;;;;;;;;;;;;;;16.60;36.42;98222.41;4478357;31;34061;-62
2022/03/30 12:40:35;;;;;;;;;;;;;;;16.67;35.72;98217.91;4477025;31;34818;-62
2022/03/30 12:43:04;;;;;;;;;;;;;;;16.68;35.95;98221.44;4481666;31;33177;-63
2022/03/30 12:45:53;;;;;;;;;;;;;;;16.87;35.40;98211.91;4483641;31;34766;-61
2022/03/30 12:48:27;;;;;;;;;;;;;;;17.05;34.95;98203.38;4491370;31;34451;-62
2022/03/30 12:50:59;;;;;;;;;;;;;;;16.93;35.20;98203.84;4478434;31;34290;-61
2022/03/30 12:53:30;;;;;;;;;;;;;;;16.67;35.80;98206.25;4476938;31;33563;-61
2022/03/30 12:56:09;;;;;;;;;;;;;;;16.65;36.06;98200.19;4478618;31;32964;-61
2022/03/30 12:58:50;;;;;;;;;;;;;;;16.52;36.73;98193.63;4480932;31;34034;-61
2022/03/30 13:01:33;;;;;;;;;;;;;;;16.36;37.18;98185.75;4473241;31;33107;-62
2022/03/30 13:04:01;;;;;;;;;;;;;;;16.70;36.81;98185.09;4476684;31;34513;-61
2022/03/30 13:06:29;;;;;;;;;;;;;;;16.65;37.11;98182.13;4474254;31;32722;-62
2022/03/30 13:09:07;;;;;;;;;;;;;;;16.59;37.42;98165.84;4479072;31;36321;-63
2022/03/30 13:11:42;;;;;;;;;;;;;;;16.80;36.53;98171.31;4477589;31;33906;-62
2022/03/30 13:14:14;;;;;;;;;;;;;;;16.51;37.30;98169.53;4476317;31;32989;-61
2022/03/30 13:16:42;;;;;;;;;;;;;;;16.35;37.75;98159.78;4480678;31;35207;-62
2022/03/30 13:19:11;;;;;;;;;;;;;;;16.66;37.30;98161.34;4475384;31;34259;-60
2022/03/30 13:21:41;;;;;;;;;;;;;;;16.87;37.14;98164.09;4481947;31;33319;-62
2022/03/30 13:24:10;;;;;;;;;;;;;;;16.28;38.57;98159.72;4479170;31;33650;-61
2022/03/30 13:26:38;;;;;;;;;;;;;;;16.70;38.39;98149.16;4477754;31;33429;-62
2022/03/30 13:29:07;;;;;;;;;;;;;;;16.36;39.40;98153.34;4480522;31;34220;-61
2022/03/30 13:31:36;;;;;;;;;;;;;;;16.47;39.20;98146.63;4479402;31;33947;-61